createdAt,value
2022-10-05T00:00:14.386Z,82.88
2022-10-05T00:02:42.392Z,83.02
2022-10-05T00:05:31.475Z,83.50
2022-10-05T00:08:10.882Z,82.84
2022-10-05T00:10:41.430Z,83.20
2022-10-05T00:13:25.680Z,83.00
2022-10-05T00:16:03.190Z,83.01
2022-10-05T00:18:32.652Z,82.88
2022-10-05T00:21:00.341Z,83.08
2022-10-05T00:24:42.250Z,83.46
2022-10-05T00:27:33.255Z,83.43
2022-10-05T00:30:17.871Z,83.22
2022-10-05T00:33:38.235Z,83.91
2022-10-05T00:36:07.221Z,83.36
2022-10-05T00:38:34.473Z,83.73
2022-10-05T00:41:20.819Z,83.81
2022-10-05T00:43:58.600Z,83.66
2022-10-05T00:46:31.842Z,84.13
2022-10-05T00:49:29.868Z,83.75
2022-10-05T00:52:13.312Z,84.15
2022-10-05T00:54:53.475Z,84.35
2022-10-05T00:57:42.034Z,83.79
2022-10-05T01:00:13.216Z,84.01
2022-10-05T01:02:51.764Z,84.00
2022-10-05T01:05:43.153Z,84.46
2022-10-05T01:08:16.150Z,84.29
2022-10-05T01:11:08.542Z,84.34
2022-10-05T01:13:53.206Z,84.59
2022-10-05T01:17:01.103Z,84.55
2022-10-05T01:19:44.630Z,85.01
2022-10-05T01:22:24.806Z,84.66
2022-10-05T01:25:06.879Z,84.88
2022-10-05T01:27:49.013Z,85.65
2022-10-05T01:30:21.804Z,85.85
2022-10-05T01:32:55.186Z,85.18
2022-10-05T01:35:25.441Z,85.48
2022-10-05T01:38:14.552Z,85.63
2022-10-05T01:41:06.889Z,86.17
2022-10-05T01:43:35.336Z,86.38
2022-10-05T01:46:14.973Z,85.60
2022-10-05T01:48:59.193Z,86.55
2022-10-05T01:51:43.788Z,85.75
2022-10-05T01:54:30.535Z,86.43
2022-10-05T01:57:13.210Z,86.98
2022-10-05T02:00:07.794Z,85.99
2022-10-05T02:03:17.101Z,88.79
2022-10-05T02:06:04.810Z,88.07
2022-10-05T02:08:38.942Z,87.37
2022-10-05T02:11:09.608Z,87.24
2022-10-05T02:13:47.436Z,88.24
2022-10-05T02:16:31.099Z,88.50
2022-10-05T02:19:12.158Z,88.25
2022-10-05T02:21:47.547Z,88.05
2022-10-05T02:24:27.574Z,88.21
2022-10-05T02:26:56.839Z,88.31
2022-10-05T02:29:28.456Z,88.94
2022-10-05T02:32:02.442Z,89.10
2022-10-05T02:34:36.945Z,88.98
2022-10-05T02:37:36.198Z,89.58
2022-10-05T02:40:34.215Z,89.78
2022-10-05T02:43:20.810Z,91.08
2022-10-05T02:46:17.766Z,91.01
2022-10-05T02:49:00.345Z,90.87
2022-10-05T02:51:50.449Z,91.19
2022-10-05T02:54:41.660Z,91.78
2022-10-05T02:57:15.572Z,90.64
2022-10-05T03:00:00.242Z,91.62
2022-10-05T03:03:11.051Z,92.41
2022-10-05T03:05:48.557Z,91.51
2022-10-05T03:08:20.100Z,90.27
2022-10-05T03:11:22.770Z,91.38
2022-10-05T03:14:28.700Z,92.62
2022-10-05T03:17:44.270Z,93.04
2022-10-05T03:20:20.599Z,92.10
2022-10-05T03:22:52.195Z,91.29
2022-10-05T03:25:42.305Z,92.69
2022-10-05T03:28:39.115Z,92.60
2022-10-05T03:31:29.167Z,93.09
2022-10-05T03:35:03.347Z,91.99
2022-10-05T03:42:04.076Z,91.07
2022-10-05T03:44:57.463Z,91.75
2022-10-05T03:47:41.501Z,91.00
2022-10-05T03:50:12.258Z,91.78
2022-10-05T03:52:47.951Z,92.56
2022-10-05T03:55:43.197Z,91.85
2022-10-05T03:58:26.312Z,90.90
2022-10-05T04:00:59.346Z,91.90
2022-10-05T04:03:41.262Z,92.52
2022-10-05T04:06:35.350Z,91.79
2022-10-05T04:09:36.872Z,91.51
2022-10-05T04:12:17.744Z,91.15
2022-10-05T04:14:49.106Z,91.36
2022-10-05T04:17:23.956Z,91.74
2022-10-05T04:19:59.703Z,91.93
2022-10-05T04:22:50.586Z,92.45
2022-10-05T04:25:29.173Z,91.26
2022-10-05T04:28:38.468Z,91.26
2022-10-05T04:31:29.574Z,91.23
2022-10-05T04:34:10.315Z,92.18
2022-10-05T04:36:54.949Z,92.30
2022-10-05T04:39:51.460Z,93.01
2022-10-05T04:42:36.924Z,92.52
2022-10-05T04:45:37.223Z,92.50
2022-10-05T04:48:21.070Z,92.24
2022-10-05T04:51:14.693Z,91.65
2022-10-05T04:54:02.024Z,92.12
2022-10-05T04:57:22.561Z,92.71
2022-10-05T05:00:08.905Z,91.64
2022-10-05T05:02:50.455Z,91.73
2022-10-05T05:05:58.721Z,91.89
2022-10-05T05:08:26.372Z,91.24
2022-10-05T05:11:23.774Z,92.05
2022-10-05T05:14:02.249Z,92.22
2022-10-05T05:16:41.494Z,92.11
2022-10-05T05:19:52.064Z,91.76
2022-10-05T05:22:48.962Z,92.01
2022-10-05T05:25:39.895Z,91.80
2022-10-05T05:28:30.005Z,91.83
2022-10-05T05:31:11.182Z,91.35
2022-10-05T05:33:43.028Z,91.94
2022-10-05T05:36:28.578Z,90.50
2022-10-05T05:39:24.129Z,90.70
2022-10-05T05:42:01.597Z,89.95
2022-10-05T05:45:12.731Z,89.40
2022-10-05T05:47:46.162Z,89.33
2022-10-05T05:50:23.577Z,88.31
2022-10-05T05:54:00.171Z,88.86
2022-10-05T05:56:43.399Z,89.35
2022-10-05T05:59:16.790Z,89.05
2022-10-05T06:01:49.538Z,89.46
2022-10-05T06:04:31.923Z,89.40
2022-10-05T06:07:03.664Z,89.45
2022-10-05T06:10:21.853Z,90.06
2022-10-05T06:13:08.776Z,88.88
2022-10-05T06:15:45.161Z,89.67
2022-10-05T06:18:17.888Z,89.01
2022-10-05T06:21:15.238Z,89.71
2022-10-05T06:24:13.777Z,88.84
2022-10-05T06:27:22.322Z,89.31
2022-10-05T06:29:57.231Z,89.36
2022-10-05T06:32:51.082Z,89.51
2022-10-05T06:35:59.896Z,87.83
2022-10-05T06:39:02.938Z,87.96
2022-10-05T06:42:07.055Z,87.75
2022-10-05T06:45:27.887Z,87.02
2022-10-05T06:48:54.316Z,86.03
2022-10-05T06:52:06.316Z,85.43
2022-10-05T06:54:46.338Z,86.32
2022-10-05T06:57:33.654Z,85.15
2022-10-05T07:00:16.328Z,85.43
2022-10-05T07:02:56.214Z,85.21
2022-10-05T07:05:42.342Z,84.31
2022-10-05T07:08:30.172Z,83.17
2022-10-05T07:11:05.285Z,84.71
2022-10-05T07:14:36.253Z,83.79
2022-10-05T07:17:37.568Z,85.18
2022-10-05T07:20:23.659Z,84.80
2022-10-05T07:23:25.726Z,84.31
2022-10-05T07:26:01.917Z,83.91
2022-10-05T07:28:47.462Z,83.47
2022-10-05T07:31:40.686Z,82.53
2022-10-05T07:34:37.066Z,82.72
2022-10-05T07:37:55.137Z,82.55
2022-10-05T07:40:45.319Z,82.20
2022-10-05T07:43:45.187Z,83.09
2022-10-05T07:46:50.676Z,82.90
2022-10-05T07:49:19.110Z,83.99
2022-10-05T07:51:51.533Z,83.71
2022-10-05T07:54:42.986Z,82.65
2022-10-05T07:57:25.022Z,83.04
2022-10-05T08:00:06.474Z,83.63
2022-10-05T08:02:49.225Z,84.08
2022-10-05T08:05:33.363Z,82.69
2022-10-05T08:08:28.672Z,83.51
2022-10-05T08:11:01.487Z,83.01
2022-10-05T08:13:59.220Z,82.31
2022-10-05T08:16:35.482Z,82.98
2022-10-05T08:19:15.490Z,84.03
2022-10-05T08:21:52.518Z,85.73
2022-10-05T08:24:35.048Z,86.59
2022-10-05T08:27:10.597Z,86.83
2022-10-05T08:30:00.316Z,86.96
2022-10-05T08:32:45.481Z,87.07
2022-10-05T08:35:21.736Z,86.80
2022-10-05T08:37:50.262Z,86.28
2022-10-05T08:40:43.367Z,86.58
2022-10-05T08:43:34.367Z,87.24
2022-10-05T08:46:14.663Z,87.46
2022-10-05T08:48:57.411Z,86.20
2022-10-05T08:51:33.333Z,86.68
2022-10-05T08:54:29.198Z,86.41
2022-10-05T08:57:17.739Z,86.86
2022-10-05T08:59:48.309Z,86.86
2022-10-05T09:02:45.353Z,86.99
2022-10-05T09:05:26.510Z,87.84
2022-10-05T09:08:24.106Z,86.68
2022-10-05T09:11:09.934Z,88.13
2022-10-05T09:14:32.194Z,89.15
2022-10-05T09:17:38.505Z,89.62
2022-10-05T09:22:19.341Z,88.87
2022-10-05T09:23:44.470Z,87.95
2022-10-05T09:26:32.095Z,87.74
2022-10-05T09:29:37.676Z,87.35
2022-10-05T09:32:33.046Z,87.16
2022-10-05T09:35:19.469Z,86.58
2022-10-05T09:38:05.444Z,86.19
2022-10-05T09:40:48.493Z,84.54
2022-10-05T09:43:52.963Z,81.81
2022-10-05T09:46:40.669Z,81.65
2022-10-05T09:49:32.711Z,81.16
2022-10-05T09:52:41.400Z,80.20
2022-10-05T09:55:21.255Z,80.49
2022-10-05T09:58:14.521Z,80.28
2022-10-05T10:00:44.897Z,81.62
2022-10-05T10:03:45.130Z,80.48
2022-10-05T10:06:33.546Z,79.64
2022-10-05T10:09:18.811Z,78.68
2022-10-05T10:11:58.324Z,78.99
2022-10-05T10:15:24.253Z,79.27
2022-10-05T10:18:09.820Z,80.69
2022-10-05T10:21:15.256Z,80.79
2022-10-05T10:24:03.558Z,80.37
2022-10-05T10:26:48.878Z,81.42
2022-10-05T10:29:50.939Z,79.65
2022-10-05T10:32:33.557Z,81.53
2022-10-05T10:35:14.512Z,80.95
2022-10-05T10:38:09.553Z,78.34
2022-10-05T10:41:13.962Z,77.48
2022-10-05T10:44:17.754Z,75.40
2022-10-05T10:47:23.034Z,73.28
2022-10-05T10:50:06.604Z,74.13
2022-10-05T10:52:54.487Z,73.51
2022-10-05T10:55:38.904Z,74.74
2022-10-05T10:58:37.025Z,73.71
2022-10-05T11:01:30.545Z,74.83
2022-10-05T11:04:38.269Z,74.94
2022-10-05T11:07:24.269Z,76.06
2022-10-05T11:10:14.381Z,77.71
2022-10-05T11:13:17.396Z,76.14
2022-10-05T11:16:22.230Z,76.95
2022-10-05T11:19:03.436Z,76.94
2022-10-05T11:21:40.530Z,77.76
2022-10-05T11:24:40.025Z,77.93
2022-10-05T11:27:08.645Z,78.53
2022-10-05T11:30:02.695Z,77.59
2022-10-05T11:33:01.426Z,75.26
2022-10-05T11:35:50.050Z,75.23
2022-10-05T11:38:46.558Z,74.24
2022-10-05T11:41:55.202Z,73.55
2022-10-05T11:45:00.127Z,73.59
2022-10-05T11:47:37.620Z,74.05
2022-10-05T11:50:06.724Z,75.50
2022-10-05T11:52:52.184Z,72.40
2022-10-05T11:55:26.915Z,68.50
2022-10-05T11:57:59.196Z,68.52
2022-10-05T12:00:47.427Z,67.41
2022-10-05T12:03:27.779Z,69.56
2022-10-05T12:06:13.698Z,68.03
2022-10-05T12:08:52.197Z,70.91
2022-10-05T12:11:46.237Z,72.59
2022-10-05T12:14:24.726Z,74.05
2022-10-05T12:17:00.962Z,74.84
2022-10-05T12:19:37.013Z,75.71
2022-10-05T12:22:15.738Z,75.86
2022-10-05T12:24:55.742Z,76.51
2022-10-05T12:27:28.537Z,76.86
2022-10-05T12:30:14.773Z,76.86
2022-10-05T12:33:13.050Z,77.51
2022-10-05T12:35:59.367Z,78.44
2022-10-05T12:41:36.916Z,80.58
2022-10-05T12:44:12.823Z,79.36
2022-10-05T12:47:04.849Z,80.84
2022-10-05T12:50:03.241Z,80.60
2022-10-05T12:53:08.227Z,80.13
2022-10-05T12:55:55.365Z,80.41
2022-10-05T12:59:07.298Z,81.15
2022-10-05T13:01:42.975Z,79.72
2022-10-05T13:04:38.631Z,80.35
2022-10-05T13:07:26.348Z,80.57
2022-10-05T13:13:15.265Z,80.62
2022-10-05T13:15:48.455Z,80.54
2022-10-05T13:18:23.994Z,79.99
2022-10-05T13:21:04.981Z,78.66
2022-10-05T13:23:40.267Z,79.36
2022-10-05T13:26:28.426Z,78.09
2022-10-05T13:29:22.523Z,78.77
2022-10-05T13:32:02.554Z,79.62
2022-10-05T13:34:51.626Z,80.44
2022-10-05T13:37:34.170Z,80.25
2022-10-05T13:40:21.945Z,79.25
2022-10-05T13:43:14.774Z,79.25
2022-10-05T13:46:05.305Z,79.13
2022-10-05T13:48:47.875Z,79.96
2022-10-05T13:51:28.592Z,80.77
2022-10-05T13:53:58.617Z,80.33
2022-10-05T13:56:31.368Z,81.03
2022-10-05T13:59:15.962Z,80.40
2022-10-05T14:01:55.788Z,80.33
2022-10-05T14:04:28.489Z,80.94
2022-10-05T14:06:56.940Z,80.54
2022-10-05T14:09:30.765Z,80.53
2022-10-05T14:12:04.687Z,80.92
2022-10-05T14:14:36.354Z,80.94
2022-10-05T14:17:13.577Z,80.33
2022-10-05T14:19:48.673Z,80.15
2022-10-05T14:22:25.199Z,78.99
2022-10-05T14:25:02.336Z,79.62
2022-10-05T14:27:33.868Z,79.73
2022-10-05T14:30:13.201Z,79.61
2022-10-05T14:32:54.022Z,78.97
2022-10-05T14:35:22.555Z,80.17
2022-10-05T14:37:56.324Z,79.76
2022-10-05T14:40:23.524Z,80.42
2022-10-05T14:42:52.261Z,80.87
2022-10-05T14:45:30.253Z,78.75
2022-10-05T14:48:00.498Z,79.75
2022-10-05T14:50:30.854Z,80.38
2022-10-05T14:53:03.794Z,79.81
2022-10-05T14:56:06.296Z,80.73
2022-10-05T14:59:07.254Z,80.72
2022-10-05T15:01:36.850Z,80.23
2022-10-05T15:04:27.871Z,81.38
2022-10-05T15:07:04.040Z,81.42
2022-10-05T15:09:50.399Z,82.03
2022-10-05T15:12:48.546Z,81.72
2022-10-05T15:15:57.235Z,81.45
2022-10-05T15:18:32.231Z,82.01
2022-10-05T15:21:06.528Z,82.26
2022-10-05T15:23:40.937Z,81.75
2022-10-05T15:26:40.895Z,80.38
2022-10-05T15:29:32.894Z,79.23
2022-10-05T15:32:19.231Z,79.75
2022-10-05T15:34:49.298Z,80.27
2022-10-05T15:37:33.229Z,79.26
2022-10-05T15:40:05.081Z,80.11
2022-10-05T15:42:43.196Z,79.63
2022-10-05T15:45:32.404Z,79.86
2022-10-05T15:48:20.915Z,80.29
2022-10-05T15:51:07.354Z,79.58
2022-10-05T15:53:52.471Z,80.37
2022-10-05T15:56:23.662Z,80.85
2022-10-05T15:59:25.933Z,80.79
2022-10-05T16:02:07.590Z,80.34
2022-10-05T16:05:04.486Z,81.17
2022-10-05T16:08:04.698Z,80.16
2022-10-05T16:10:37.606Z,82.66
2022-10-05T16:13:19.525Z,80.73
2022-10-05T16:15:55.251Z,79.63
2022-10-05T16:18:34.655Z,80.22
2022-10-05T16:21:51.825Z,83.55
2022-10-05T16:24:42.062Z,79.46
2022-10-05T16:27:54.483Z,79.32
2022-10-05T16:30:24.947Z,79.62
2022-10-05T16:33:16.072Z,79.56
2022-10-05T16:36:03.297Z,80.59
2022-10-05T16:38:47.090Z,80.16
2022-10-05T16:41:41.377Z,79.62
2022-10-05T16:44:34.629Z,80.19
2022-10-05T16:47:09.627Z,80.34
2022-10-05T16:50:04.450Z,80.05
2022-10-05T16:52:34.199Z,79.99
2022-10-05T16:55:12.501Z,80.41
2022-10-05T16:57:46.619Z,80.00
2022-10-05T17:00:22.246Z,80.74
2022-10-05T17:03:04.812Z,80.98
2022-10-05T17:06:04.159Z,81.06
2022-10-05T17:09:02.412Z,81.92
2022-10-05T17:11:58.065Z,80.91
2022-10-05T17:14:37.104Z,80.59
2022-10-05T17:17:25.841Z,81.73
2022-10-05T17:19:56.948Z,82.77
2022-10-05T17:22:33.201Z,80.88
2022-10-05T17:25:28.330Z,80.68
2022-10-05T17:28:15.417Z,80.09
2022-10-05T17:31:07.823Z,80.40
2022-10-05T17:34:14.391Z,82.57
2022-10-05T17:36:48.411Z,80.92
2022-10-05T17:39:24.164Z,80.62
2022-10-05T17:41:51.460Z,80.37
2022-10-05T17:44:25.086Z,80.06
2022-10-05T17:47:03.177Z,79.71
2022-10-05T17:50:18.682Z,80.06
2022-10-05T17:53:39.092Z,79.97
2022-10-05T17:56:06.582Z,80.21
2022-10-05T17:58:33.599Z,80.11
2022-10-05T18:01:01.204Z,80.74
2022-10-05T18:03:43.766Z,80.58
2022-10-05T18:06:28.541Z,80.57
2022-10-05T18:09:23.157Z,80.79
2022-10-05T18:12:18.094Z,80.45
2022-10-05T18:15:24.880Z,80.86
2022-10-05T18:18:01.068Z,81.28
2022-10-05T18:20:32.711Z,81.93
2022-10-05T18:23:04.074Z,81.48
2022-10-05T18:25:34.144Z,81.56
2022-10-05T18:28:22.623Z,81.36
2022-10-05T18:31:22.297Z,80.97
2022-10-05T18:34:16.477Z,82.48
2022-10-05T18:36:59.176Z,82.39
2022-10-05T18:39:41.745Z,82.56
2022-10-05T18:42:25.508Z,82.10
2022-10-05T18:45:26.400Z,83.09
2022-10-05T18:48:18.714Z,82.15
2022-10-05T18:50:55.157Z,82.96
2022-10-05T18:53:30.269Z,83.22
2022-10-05T18:56:20.741Z,83.21
2022-10-05T18:59:07.584Z,82.63
2022-10-05T19:02:05.920Z,83.75
2022-10-05T19:04:52.482Z,84.47
2022-10-05T19:08:02.770Z,84.02
2022-10-05T19:10:48.484Z,84.41
2022-10-05T19:13:28.114Z,83.76
2022-10-05T19:16:26.137Z,85.08
2022-10-05T19:19:08.092Z,85.57
2022-10-05T19:21:46.554Z,85.40
2022-10-05T19:24:13.975Z,85.17
2022-10-05T19:26:53.852Z,84.36
2022-10-05T19:29:24.032Z,84.22
2022-10-05T19:31:58.991Z,84.51
2022-10-05T19:34:33.040Z,84.81
2022-10-05T19:37:23.681Z,85.00
2022-10-05T19:40:07.262Z,84.59
2022-10-05T19:43:04.786Z,84.94
2022-10-05T19:45:43.514Z,85.24
2022-10-05T19:48:38.211Z,85.49
2022-10-05T19:51:18.292Z,84.36
2022-10-05T19:53:50.142Z,84.23
2022-10-05T19:56:26.260Z,84.36
2022-10-05T19:58:59.562Z,84.25
2022-10-05T20:01:34.358Z,84.25
2022-10-05T20:04:05.470Z,84.34
2022-10-05T20:06:33.978Z,83.94
2022-10-05T20:09:19.925Z,84.88
2022-10-05T20:11:53.481Z,84.14
2022-10-05T20:14:26.282Z,84.63
2022-10-05T20:17:32.603Z,84.68
2022-10-05T20:20:34.616Z,85.65
2022-10-05T20:23:28.180Z,85.05
2022-10-05T20:26:13.993Z,85.47
2022-10-05T20:28:44.732Z,85.16
2022-10-05T20:31:12.798Z,86.00
2022-10-05T20:34:08.497Z,85.25
2022-10-05T20:36:35.680Z,85.31
2022-10-05T20:39:03.087Z,85.11
2022-10-05T20:41:30.160Z,85.88
2022-10-05T20:43:57.491Z,85.77
2022-10-05T20:46:24.720Z,86.25
2022-10-05T20:48:54.143Z,85.91
2022-10-05T20:51:21.343Z,86.27
2022-10-05T20:53:48.763Z,86.71
2022-10-05T20:56:16.384Z,86.84
2022-10-05T20:58:45.923Z,86.61
2022-10-05T21:01:15.738Z,86.66
2022-10-05T21:03:43.796Z,86.68
2022-10-05T21:06:11.673Z,86.74
2022-10-05T21:08:39.868Z,87.35
2022-10-05T21:11:09.193Z,87.46
2022-10-05T21:13:43.112Z,87.38
2022-10-05T21:16:14.227Z,87.10
2022-10-05T21:18:49.013Z,87.21
2022-10-05T21:21:17.822Z,87.21
2022-10-05T21:23:47.113Z,87.32
2022-10-05T21:26:15.549Z,87.42
2022-10-05T21:28:43.856Z,87.62
2022-10-05T21:31:11.170Z,87.78
2022-10-05T21:33:40.537Z,87.97
2022-10-05T21:36:07.585Z,87.97
2022-10-05T21:38:34.808Z,88.13
2022-10-05T21:41:02.057Z,87.88
2022-10-05T21:43:29.869Z,87.69
2022-10-05T21:45:57.527Z,88.93
2022-10-05T21:48:26.296Z,89.11
2022-10-05T21:50:54.587Z,89.25
2022-10-05T21:53:27.135Z,89.74
2022-10-05T21:55:54.764Z,89.14
2022-10-05T21:58:23.001Z,89.45
2022-10-05T22:00:50.306Z,89.56
2022-10-05T22:03:20.401Z,89.80
2022-10-05T22:05:48.248Z,89.08
2022-10-05T22:08:22.572Z,90.43
2022-10-05T22:10:50.109Z,90.00
2022-10-05T22:13:17.874Z,90.14
2022-10-05T22:15:44.991Z,90.07
2022-10-05T22:18:17.462Z,91.52
2022-10-05T22:20:46.315Z,90.38
2022-10-05T22:23:13.840Z,90.65
2022-10-05T22:25:41.850Z,91.18
2022-10-05T22:28:12.303Z,91.42
2022-10-05T22:30:40.080Z,91.31
2022-10-05T22:33:07.374Z,91.50
2022-10-05T22:35:36.057Z,91.13
2022-10-05T22:38:04.167Z,91.42
2022-10-05T22:40:31.633Z,91.80
2022-10-05T22:43:00.743Z,91.49
2022-10-05T22:45:32.280Z,91.39
2022-10-05T22:47:59.631Z,93.30
2022-10-05T22:50:26.791Z,91.84
2022-10-05T22:52:55.298Z,92.04
2022-10-05T22:55:22.547Z,91.98
2022-10-05T22:57:49.717Z,91.91
2022-10-05T23:00:17.189Z,91.39
2022-10-05T23:03:35.603Z,92.42
2022-10-05T23:06:06.750Z,91.66
2022-10-05T23:08:36.257Z,91.95
2022-10-05T23:11:05.247Z,91.62
2022-10-05T23:14:26.667Z,92.63
2022-10-05T23:16:53.849Z,91.13
2022-10-05T23:19:22.740Z,91.33
2022-10-05T23:21:50.044Z,91.21
2022-10-05T23:24:19.213Z,91.95
2022-10-05T23:26:47.492Z,91.52
2022-10-05T23:29:14.751Z,91.73
2022-10-05T23:31:42.513Z,91.13
2022-10-05T23:34:10.001Z,91.69
2022-10-05T23:36:37.259Z,91.49
2022-10-05T23:39:04.580Z,91.52
2022-10-05T23:41:32.751Z,91.79
2022-10-05T23:44:02.063Z,91.91
2022-10-05T23:46:29.408Z,91.78
2022-10-05T23:48:56.672Z,91.58
2022-10-05T23:51:23.729Z,91.03
2022-10-05T23:54:17.794Z,91.89
2022-10-05T23:56:44.819Z,91.16
2022-10-05T23:59:11.923Z,91.42
